createdAt,value
2019-02-09T00:00:32.699Z,1.70
2019-02-09T00:03:01.122Z,1.70
2019-02-09T00:05:29.803Z,1.70
2019-02-09T00:07:58.210Z,1.70
2019-02-09T00:10:26.669Z,1.70
2019-02-09T00:12:55.063Z,1.60
2019-02-09T00:15:23.492Z,1.50
2019-02-09T00:17:55.702Z,1.50
2019-02-09T00:20:24.127Z,1.40
2019-02-09T00:22:52.607Z,1.30
2019-02-09T00:25:23.007Z,1.40
2019-02-09T00:27:51.428Z,1.40
2019-02-09T00:30:24.064Z,1.40
2019-02-09T00:32:56.215Z,1.40
2019-02-09T00:35:24.614Z,1.30
2019-02-09T00:37:53.044Z,1.30
2019-02-09T00:40:27.191Z,1.30
2019-02-09T00:42:55.706Z,1.30
2019-02-09T00:45:28.556Z,1.30
2019-02-09T00:48:00.619Z,1.20
2019-02-09T00:50:29.026Z,1.20
2019-02-09T00:52:57.461Z,1.20
2019-02-09T00:55:29.234Z,1.10
2019-02-09T00:57:58.096Z,1.10
2019-02-09T01:00:31.357Z,1.00
2019-02-09T01:03:00.315Z,1.00
2019-02-09T01:05:34.275Z,1.00
2019-02-09T01:08:02.755Z,1.00
2019-02-09T01:10:32.023Z,1.00
2019-02-09T01:13:00.702Z,1.00
2019-02-09T01:15:29.270Z,1.00
2019-02-09T01:17:57.690Z,1.00
2019-02-09T01:20:28.591Z,1.10
2019-02-09T01:22:58.562Z,1.00
2019-02-09T01:25:27.349Z,1.10
2019-02-09T01:27:55.823Z,1.10
2019-02-09T01:30:28.935Z,1.20
2019-02-09T01:32:57.689Z,1.30
2019-02-09T01:35:27.141Z,1.30
2019-02-09T01:37:55.944Z,1.20
2019-02-09T01:40:30.449Z,1.20
2019-02-09T01:42:59.249Z,1.20
2019-02-09T01:45:30.071Z,1.20
2019-02-09T01:47:58.969Z,1.20
2019-02-09T01:50:32.385Z,1.10
2019-02-09T01:53:00.863Z,1.10
2019-02-09T01:55:29.674Z,1.10
2019-02-09T01:57:59.126Z,1.10
2019-02-09T02:00:35.321Z,1.10
2019-02-09T02:03:04.580Z,1.10
2019-02-09T02:05:33.192Z,1.10
2019-02-09T02:08:01.756Z,1.00
2019-02-09T02:10:38.142Z,1.20
2019-02-09T02:13:08.686Z,1.30
2019-02-09T02:15:37.970Z,1.40
2019-02-09T02:18:07.610Z,1.50
2019-02-09T02:20:36.085Z,1.50
2019-02-09T02:23:05.050Z,1.60
2019-02-09T02:25:33.475Z,1.60
2019-02-09T02:28:01.924Z,1.60
2019-02-09T02:30:35.524Z,1.70
2019-02-09T02:33:04.540Z,1.80
2019-02-09T02:35:32.962Z,1.80
2019-02-09T02:38:01.436Z,1.90
2019-02-09T02:40:29.954Z,1.90
2019-02-09T02:42:58.376Z,2.00
2019-02-09T02:45:27.265Z,2.00
2019-02-09T02:47:55.924Z,2.10
2019-02-09T02:50:27.851Z,2.10
2019-02-09T02:52:56.286Z,2.10
2019-02-09T02:55:26.992Z,2.20
2019-02-09T02:57:56.047Z,2.20
2019-02-09T03:00:32.727Z,2.30
2019-02-09T03:03:00.698Z,2.30
2019-02-09T03:05:29.547Z,2.40
2019-02-09T03:07:58.829Z,2.40
2019-02-09T03:10:27.602Z,2.50
2019-02-09T03:12:56.090Z,2.50
2019-02-09T03:15:32.150Z,2.40
2019-02-09T03:18:00.956Z,2.50
2019-02-09T03:20:32.786Z,2.50
2019-02-09T03:23:01.308Z,2.60
2019-02-09T03:25:36.204Z,2.60
2019-02-09T03:28:05.495Z,2.70
2019-02-09T03:30:47.044Z,2.70
2019-02-09T03:33:04.324Z,2.70
2019-02-09T03:35:32.751Z,2.80
2019-02-09T03:38:01.163Z,2.90
2019-02-09T03:40:29.840Z,2.90
2019-02-09T03:42:58.546Z,3.00
2019-02-09T03:45:31.789Z,3.00
2019-02-09T03:48:00.709Z,3.00
2019-02-09T03:50:31.231Z,2.90
2019-02-09T03:53:00.023Z,2.90
2019-02-09T03:55:28.512Z,3.00
2019-02-09T03:57:57.086Z,3.00
2019-02-09T04:00:32.987Z,3.00
2019-02-09T04:03:02.234Z,3.00
2019-02-09T04:05:31.111Z,3.00
2019-02-09T04:07:59.797Z,3.00
2019-02-09T04:10:28.780Z,3.00
2019-02-09T04:12:57.494Z,3.00
2019-02-09T04:15:27.362Z,3.00
2019-02-09T04:17:56.523Z,3.00
2019-02-09T04:20:25.964Z,3.00
2019-02-09T04:22:54.595Z,3.00
2019-02-09T04:25:24.243Z,3.00
2019-02-09T04:27:53.030Z,3.00
2019-02-09T04:30:30.324Z,3.00
2019-02-09T04:32:59.380Z,2.90
2019-02-09T04:35:27.984Z,3.10
2019-02-09T04:37:56.850Z,3.00
2019-02-09T04:40:30.609Z,3.00
2019-02-09T04:42:59.553Z,3.00
2019-02-09T04:45:28.328Z,3.00
2019-02-09T04:47:57.478Z,3.00
2019-02-09T04:50:25.954Z,3.10
2019-02-09T04:52:54.789Z,3.10
2019-02-09T04:55:26.259Z,3.20
2019-02-09T04:57:55.016Z,3.20
2019-02-09T05:00:29.271Z,3.20
2019-02-09T05:02:58.084Z,3.30
2019-02-09T05:05:27.563Z,3.40
2019-02-09T05:07:59.750Z,3.40
2019-02-09T05:10:28.181Z,3.50
2019-02-09T05:12:56.610Z,3.50
2019-02-09T05:15:25.220Z,3.60
2019-02-09T05:17:53.696Z,3.60
2019-02-09T05:20:24.843Z,3.60
2019-02-09T05:22:59.162Z,3.50
2019-02-09T05:25:27.686Z,3.40
2019-02-09T05:27:56.127Z,3.40
2019-02-09T05:30:27.140Z,3.30
2019-02-09T05:32:56.419Z,3.30
2019-02-09T05:35:25.624Z,3.30
2019-02-09T05:37:57.611Z,3.40
2019-02-09T05:40:27.657Z,3.40
2019-02-09T05:42:56.289Z,3.50
2019-02-09T05:45:27.311Z,3.60
2019-02-09T05:47:55.807Z,3.60
2019-02-09T05:50:24.711Z,3.70
2019-02-09T05:52:53.535Z,3.70
2019-02-09T05:55:22.217Z,3.80
2019-02-09T05:57:50.842Z,3.80
2019-02-09T06:00:29.559Z,3.80
2019-02-09T06:02:58.668Z,3.80
2019-02-09T06:05:27.102Z,3.90
2019-02-09T06:07:55.627Z,3.90
2019-02-09T06:10:24.204Z,4.00
2019-02-09T06:12:52.986Z,4.00
2019-02-09T06:15:24.157Z,3.90
2019-02-09T06:17:52.998Z,3.80
2019-02-09T06:20:26.480Z,3.90
2019-02-09T06:22:55.449Z,3.90
2019-02-09T06:25:24.132Z,4.00
2019-02-09T06:27:52.888Z,4.10
2019-02-09T06:30:24.395Z,4.10
2019-02-09T06:32:52.855Z,4.20
2019-02-09T06:35:21.267Z,4.30
2019-02-09T06:37:49.796Z,4.30
2019-02-09T06:40:22.819Z,4.20
2019-02-09T06:42:51.255Z,4.20
2019-02-09T06:45:21.492Z,4.20
2019-02-09T06:47:50.295Z,4.20
2019-02-09T06:50:24.702Z,4.30
2019-02-09T06:52:53.146Z,4.40
2019-02-09T06:55:21.546Z,4.30
2019-02-09T06:57:49.958Z,4.30
2019-02-09T07:00:21.198Z,4.30
2019-02-09T07:02:49.674Z,4.20
2019-02-09T07:05:19.851Z,4.20
2019-02-09T07:07:48.403Z,4.10
2019-02-09T07:10:25.351Z,4.20
2019-02-09T07:12:54.255Z,4.10
2019-02-09T07:15:28.557Z,4.20
2019-02-09T07:17:56.977Z,4.20
2019-02-09T07:20:25.394Z,4.30
2019-02-09T07:22:54.478Z,4.50
2019-02-09T07:25:23.015Z,4.70
2019-02-09T07:27:51.798Z,4.90
2019-02-09T07:30:29.012Z,5.00
2019-02-09T07:32:59.268Z,5.00
2019-02-09T07:35:27.987Z,5.10
2019-02-09T07:37:56.427Z,5.20
2019-02-09T07:40:29.446Z,5.20
2019-02-09T07:42:57.890Z,5.30
2019-02-09T07:45:31.786Z,5.30
2019-02-09T07:48:00.319Z,5.20
2019-02-09T07:50:29.281Z,5.30
2019-02-09T07:52:57.711Z,5.40
2019-02-09T07:55:26.358Z,5.50
2019-02-09T07:57:54.801Z,5.50
2019-02-09T08:00:31.302Z,5.40
2019-02-09T08:03:00.667Z,5.40
2019-02-09T08:05:31.040Z,5.40
2019-02-09T08:07:59.987Z,5.40
2019-02-09T08:10:40.720Z,5.50
2019-02-09T08:13:10.279Z,5.70
2019-02-09T08:15:39.191Z,5.80
2019-02-09T08:18:08.749Z,5.80
2019-02-09T08:20:37.455Z,5.80
2019-02-09T08:23:10.693Z,5.90
2019-02-09T08:25:44.706Z,5.90
2019-02-09T08:28:14.458Z,6.00
2019-02-09T08:30:45.980Z,6.00
2019-02-09T08:33:14.384Z,6.00
2019-02-09T08:35:43.285Z,6.10
2019-02-09T08:38:13.098Z,6.20
2019-02-09T08:40:41.526Z,6.40
2019-02-09T08:43:10.148Z,6.50
2019-02-09T08:45:38.586Z,6.80
2019-02-09T08:48:07.168Z,7.00
2019-02-09T08:50:38.943Z,7.10
2019-02-09T08:53:07.374Z,7.20
2019-02-09T08:55:35.862Z,7.30
2019-02-09T08:58:05.326Z,7.30
2019-02-09T09:00:35.818Z,7.30
2019-02-09T09:03:05.108Z,7.30
2019-02-09T09:05:34.005Z,7.20
2019-02-09T09:08:02.416Z,7.10
2019-02-09T09:10:31.866Z,7.20
2019-02-09T09:13:01.294Z,7.20
2019-02-09T09:15:38.598Z,7.30
2019-02-09T09:18:07.475Z,7.30
2019-02-09T09:20:39.146Z,7.40
2019-02-09T09:23:07.555Z,7.40
2019-02-09T09:25:36.071Z,7.40
2019-02-09T09:28:05.271Z,7.50
2019-02-09T09:30:33.959Z,7.70
2019-02-09T09:33:02.643Z,7.80
2019-02-09T09:35:31.087Z,7.90
2019-02-09T09:37:59.555Z,8.10
2019-02-09T09:40:36.564Z,8.30
2019-02-09T09:43:05.493Z,8.60
2019-02-09T09:45:36.108Z,8.60
2019-02-09T09:48:06.924Z,8.50
2019-02-09T09:50:35.487Z,8.60
2019-02-09T09:53:04.652Z,8.70
2019-02-09T09:55:33.327Z,8.70
2019-02-09T09:58:01.742Z,8.50
2019-02-09T10:00:30.249Z,8.40
2019-02-09T10:02:58.862Z,8.20
2019-02-09T10:05:27.771Z,8.20
2019-02-09T10:07:56.175Z,8.20
2019-02-09T10:10:24.630Z,8.30
2019-02-09T10:12:53.067Z,8.50
2019-02-09T10:15:26.954Z,8.70
2019-02-09T10:17:55.646Z,8.90
2019-02-09T10:20:28.661Z,9.00
2019-02-09T10:22:57.413Z,8.90
2019-02-09T10:25:26.021Z,9.00
2019-02-09T10:27:56.264Z,9.20
2019-02-09T10:30:36.841Z,9.40
2019-02-09T10:33:05.265Z,9.40
2019-02-09T10:35:34.107Z,9.50
2019-02-09T10:38:02.796Z,9.50
2019-02-09T10:40:33.935Z,9.70
2019-02-09T10:43:04.315Z,9.70
2019-02-09T10:45:33.261Z,9.90
2019-02-09T10:48:03.103Z,10.00
2019-02-09T10:50:43.179Z,10.10
2019-02-09T10:53:11.830Z,10.00
2019-02-09T10:55:40.331Z,10.00
2019-02-09T10:58:09.295Z,9.90
2019-02-09T11:00:43.481Z,9.80
2019-02-09T11:03:12.012Z,9.80
2019-02-09T11:05:42.630Z,9.70
2019-02-09T11:08:11.120Z,9.70
2019-02-09T11:10:39.595Z,9.70
2019-02-09T11:13:07.995Z,9.70
2019-02-09T11:15:36.810Z,9.70
2019-02-09T11:18:06.478Z,9.80
2019-02-09T11:20:35.530Z,9.90
2019-02-09T11:23:04.387Z,9.90
2019-02-09T11:25:32.797Z,10.00
2019-02-09T11:28:01.240Z,10.10
2019-02-09T11:30:30.834Z,10.00
2019-02-09T11:33:02.085Z,10.10
2019-02-09T11:35:29.858Z,10.00
2019-02-09T11:37:58.267Z,9.90
2019-02-09T11:40:31.567Z,10.00
2019-02-09T11:43:01.238Z,9.90
2019-02-09T11:45:31.240Z,9.90
2019-02-09T11:47:59.648Z,9.90
2019-02-09T11:50:28.111Z,9.80
2019-02-09T11:52:56.819Z,9.90
2019-02-09T11:55:25.240Z,9.80
2019-02-09T11:57:53.672Z,9.80
2019-02-09T12:00:36.958Z,9.80
2019-02-09T12:03:14.796Z,9.70
2019-02-09T12:05:36.286Z,9.70
2019-02-09T12:08:06.676Z,9.80
2019-02-09T12:10:35.154Z,9.80
2019-02-09T12:13:04.167Z,9.60
2019-02-09T12:15:35.229Z,9.70
2019-02-09T12:18:04.612Z,9.70
2019-02-09T12:20:33.029Z,9.80
2019-02-09T12:23:01.463Z,9.90
2019-02-09T12:25:32.659Z,10.00
2019-02-09T12:28:01.118Z,10.10
2019-02-09T12:30:40.552Z,10.20
2019-02-09T12:33:11.131Z,10.10
2019-02-09T12:35:40.530Z,10.10
2019-02-09T12:38:10.681Z,10.00
2019-02-09T12:40:39.496Z,9.80
2019-02-09T12:43:08.073Z,9.80
2019-02-09T12:45:45.350Z,9.70
2019-02-09T12:48:13.766Z,9.70
2019-02-09T12:50:42.208Z,9.50
2019-02-09T12:53:10.622Z,9.50
2019-02-09T12:55:39.111Z,9.60
2019-02-09T12:58:08.003Z,9.60
2019-02-09T13:00:41.827Z,9.40
2019-02-09T13:03:18.707Z,9.30
2019-02-09T13:05:47.144Z,9.30
2019-02-09T13:08:15.576Z,9.30
2019-02-09T13:10:44.056Z,9.30
2019-02-09T13:13:12.498Z,9.20
2019-02-09T13:15:40.983Z,9.30
2019-02-09T13:18:09.511Z,9.40
2019-02-09T13:20:37.914Z,9.50
2019-02-09T13:23:08.195Z,9.50
2019-02-09T13:25:36.603Z,9.70
2019-02-09T13:28:05.653Z,9.70
2019-02-09T13:30:46.555Z,9.70
2019-02-09T13:33:15.007Z,9.60
2019-02-09T13:35:43.410Z,9.50
2019-02-09T13:38:11.808Z,9.50
2019-02-09T13:40:40.268Z,9.50
2019-02-09T13:43:08.682Z,9.60
2019-02-09T13:45:42.806Z,9.60
2019-02-09T13:48:11.654Z,9.60
2019-02-09T13:50:40.155Z,9.60
2019-02-09T13:53:09.038Z,9.70
2019-02-09T13:55:37.513Z,9.80
2019-02-09T13:58:06.391Z,9.90
2019-02-09T14:00:34.867Z,9.90
2019-02-09T14:03:04.690Z,9.90
2019-02-09T14:05:33.098Z,9.80
2019-02-09T14:08:01.902Z,9.80
2019-02-09T14:10:30.345Z,9.80
2019-02-09T14:12:58.995Z,9.80
2019-02-09T14:15:38.007Z,9.80
2019-02-09T14:18:09.322Z,9.90
2019-02-09T14:20:37.843Z,9.90
2019-02-09T14:23:06.810Z,9.90
2019-02-09T14:25:35.582Z,9.90
2019-02-09T14:28:06.048Z,9.90
2019-02-09T14:30:36.896Z,9.90
2019-02-09T14:33:08.710Z,9.80
2019-02-09T14:35:38.661Z,9.80
2019-02-09T14:38:07.381Z,9.80
2019-02-09T14:40:35.829Z,9.90
2019-02-09T14:43:05.808Z,9.90
2019-02-09T14:45:42.761Z,9.90
2019-02-09T14:48:11.578Z,9.90
2019-02-09T14:50:40.004Z,9.90
2019-02-09T14:53:09.079Z,9.80
2019-02-09T14:55:38.955Z,9.80
2019-02-09T14:58:08.702Z,9.80
2019-02-09T15:00:42.384Z,9.70
2019-02-09T15:03:12.455Z,9.70
2019-02-09T15:05:41.313Z,9.70
2019-02-09T15:08:10.187Z,9.70
2019-02-09T15:10:38.596Z,9.70
2019-02-09T15:13:08.497Z,9.70
2019-02-09T15:15:40.007Z,9.70
2019-02-09T15:18:10.287Z,9.70
2019-02-09T15:20:47.499Z,9.60
2019-02-09T15:23:15.949Z,9.60
2019-02-09T15:25:44.355Z,9.60
2019-02-09T15:28:12.872Z,9.50
2019-02-09T15:30:41.690Z,9.50
2019-02-09T15:33:10.132Z,9.30
2019-02-09T15:35:38.836Z,9.20
2019-02-09T15:38:07.287Z,9.10
2019-02-09T15:40:38.572Z,9.10
2019-02-09T15:43:07.075Z,9.00
2019-02-09T15:45:35.527Z,9.00
2019-02-09T15:48:07.362Z,9.00
2019-02-09T15:50:35.816Z,8.90
2019-02-09T15:53:04.535Z,8.90
2019-02-09T15:55:33.017Z,8.80
2019-02-09T15:58:01.418Z,8.70
2019-02-09T16:00:31.417Z,8.70
2019-02-09T16:03:00.983Z,8.60
2019-02-09T16:05:29.470Z,8.50
2019-02-09T16:07:57.994Z,8.40
2019-02-09T16:10:26.895Z,8.30
2019-02-09T16:12:55.323Z,8.30
2019-02-09T16:15:26.579Z,8.20
2019-02-09T16:17:55.451Z,8.20
2019-02-09T16:20:25.819Z,8.10
2019-02-09T16:22:57.099Z,8.20
2019-02-09T16:25:25.576Z,8.20
2019-02-09T16:27:54.184Z,8.20
2019-02-09T16:30:24.660Z,8.20
2019-02-09T16:32:53.619Z,8.10
2019-02-09T16:35:34.123Z,8.00
2019-02-09T16:38:02.626Z,7.90
2019-02-09T16:40:32.416Z,7.80
2019-02-09T16:43:00.859Z,7.80
2019-02-09T16:45:31.614Z,7.70
2019-02-09T16:48:00.420Z,7.70
2019-02-09T16:50:29.012Z,7.70
2019-02-09T16:52:57.451Z,7.70
2019-02-09T16:55:26.047Z,7.90
2019-02-09T16:57:54.975Z,7.90
2019-02-09T17:00:45.773Z,7.90
2019-02-09T17:03:14.392Z,7.90
2019-02-09T17:05:43.579Z,8.00
2019-02-09T17:08:12.004Z,8.00
2019-02-09T17:10:40.419Z,8.00
2019-02-09T17:13:09.345Z,8.00
2019-02-09T17:15:38.134Z,8.00
2019-02-09T17:18:07.695Z,8.00
2019-02-09T17:20:36.642Z,8.00
2019-02-09T17:23:05.717Z,8.00
2019-02-09T17:25:34.198Z,7.90
2019-02-09T17:28:02.836Z,7.90
2019-02-09T17:30:33.946Z,7.90
2019-02-09T17:33:02.780Z,7.90
2019-02-09T17:35:31.263Z,8.00
2019-02-09T17:38:00.254Z,7.90
2019-02-09T17:40:31.786Z,7.90
2019-02-09T17:43:00.576Z,7.90
2019-02-09T17:45:37.855Z,7.90
2019-02-09T17:48:06.564Z,7.70
2019-02-09T17:50:38.568Z,7.60
2019-02-09T17:53:06.983Z,7.40
2019-02-09T17:55:35.439Z,7.40
2019-02-09T17:58:04.636Z,7.50
2019-02-09T18:00:37.429Z,7.40
2019-02-09T18:03:05.944Z,7.40
2019-02-09T18:05:38.764Z,7.30
2019-02-09T18:08:07.924Z,7.20
2019-02-09T18:10:36.524Z,7.00
2019-02-09T18:13:05.773Z,6.90
2019-02-09T18:15:34.197Z,6.80
2019-02-09T18:18:02.584Z,6.60
2019-02-09T18:20:34.649Z,6.50
2019-02-09T18:23:03.065Z,6.40
2019-02-09T18:25:31.491Z,6.30
2019-02-09T18:27:59.894Z,6.30
2019-02-09T18:30:29.966Z,6.20
2019-02-09T18:32:58.945Z,6.10
2019-02-09T18:35:27.366Z,6.00
2019-02-09T18:37:55.854Z,6.00
2019-02-09T18:40:28.247Z,6.00
2019-02-09T18:42:56.699Z,6.10
2019-02-09T18:45:32.976Z,6.20
2019-02-09T18:48:01.955Z,6.30
2019-02-09T18:50:31.830Z,6.40
2019-02-09T18:53:01.974Z,6.50
2019-02-09T18:55:31.324Z,6.70
2019-02-09T18:58:00.114Z,6.80
2019-02-09T19:00:37.682Z,6.80
2019-02-09T19:03:07.622Z,6.70
2019-02-09T19:05:36.290Z,6.80
2019-02-09T19:08:06.546Z,6.70
2019-02-09T19:10:34.978Z,6.80
2019-02-09T19:13:03.655Z,6.80
2019-02-09T19:15:32.140Z,6.80
2019-02-09T19:18:00.962Z,6.70
2019-02-09T19:20:41.208Z,6.70
2019-02-09T19:23:10.847Z,6.70
2019-02-09T19:25:39.284Z,6.60
2019-02-09T19:28:07.788Z,6.50
2019-02-09T19:30:36.196Z,6.50
2019-02-09T19:33:06.242Z,6.50
2019-02-09T19:35:35.031Z,6.50
2019-02-09T19:38:03.477Z,6.50
2019-02-09T19:40:31.880Z,6.50
2019-02-09T19:43:00.386Z,6.50
2019-02-09T19:45:33.866Z,6.50
2019-02-09T19:48:02.360Z,6.50
2019-02-09T19:50:30.835Z,6.60
2019-02-09T19:52:59.337Z,6.60
2019-02-09T19:55:29.764Z,6.60
2019-02-09T19:57:58.225Z,6.50
2019-02-09T20:00:38.446Z,6.50
2019-02-09T20:03:07.831Z,6.40
2019-02-09T20:05:36.675Z,6.40
2019-02-09T20:08:10.898Z,6.30
2019-02-09T20:10:41.609Z,6.30
2019-02-09T20:13:11.783Z,6.30
2019-02-09T20:15:40.458Z,6.20
2019-02-09T20:18:09.911Z,6.10
2019-02-09T20:20:46.424Z,6.10
2019-02-09T20:23:08.847Z,6.10
2019-02-09T20:25:38.644Z,6.10
2019-02-09T20:28:07.567Z,6.20
2019-02-09T20:30:40.787Z,6.20
2019-02-09T20:33:09.661Z,6.30
2019-02-09T20:35:38.349Z,6.40
2019-02-09T20:38:08.588Z,6.40
2019-02-09T20:40:39.340Z,6.50
2019-02-09T20:43:15.741Z,6.30
2019-02-09T20:45:44.168Z,6.20
2019-02-09T20:48:12.646Z,6.00
2019-02-09T20:50:41.105Z,5.80
2019-02-09T20:53:09.666Z,5.70
2019-02-09T20:55:38.548Z,5.60
2019-02-09T20:58:08.943Z,5.60
2019-02-09T21:00:37.374Z,5.70
2019-02-09T21:03:06.141Z,5.70
2019-02-09T21:05:36.558Z,5.70
2019-02-09T21:08:09.930Z,5.50
2019-02-09T21:10:41.456Z,5.40
2019-02-09T21:13:09.975Z,5.20
2019-02-09T21:15:38.381Z,5.20
2019-02-09T21:18:08.034Z,5.20
2019-02-09T21:20:36.994Z,5.30
2019-02-09T21:23:06.442Z,5.30
2019-02-09T21:25:43.599Z,5.40
2019-02-09T21:28:12.240Z,5.40
2019-02-09T21:30:40.728Z,5.40
2019-02-09T21:33:09.747Z,5.50
2019-02-09T21:35:43.833Z,5.50
2019-02-09T21:38:08.450Z,5.50
2019-02-09T21:40:36.885Z,5.50
2019-02-09T21:43:06.443Z,5.50
2019-02-09T21:45:34.946Z,5.30
2019-02-09T21:48:03.663Z,5.20
2019-02-09T21:50:34.626Z,5.10
2019-02-09T21:53:03.115Z,5.00
2019-02-09T21:55:31.534Z,5.00
2019-02-09T21:58:00.088Z,5.00
2019-02-09T22:00:39.538Z,5.00
2019-02-09T22:03:09.384Z,4.90
2019-02-09T22:05:37.816Z,4.80
2019-02-09T22:08:08.395Z,4.70
2019-02-09T22:10:36.812Z,4.60
2019-02-09T22:13:05.219Z,4.60
2019-02-09T22:15:38.625Z,4.60
2019-02-09T22:18:05.461Z,4.50
2019-02-09T22:20:34.219Z,4.40
2019-02-09T22:23:02.671Z,4.40
2019-02-09T22:25:34.560Z,4.40
2019-02-09T22:28:03.043Z,4.40
2019-02-09T22:30:33.347Z,4.40
2019-02-09T22:33:02.211Z,4.50
2019-02-09T22:35:31.171Z,4.60
2019-02-09T22:38:00.152Z,4.70
2019-02-09T22:40:36.035Z,4.70
2019-02-09T22:43:05.625Z,4.70
2019-02-09T22:45:34.433Z,4.60
2019-02-09T22:48:02.936Z,4.60
2019-02-09T22:50:34.158Z,4.60
2019-02-09T22:53:02.665Z,4.60
2019-02-09T22:55:32.241Z,4.50
2019-02-09T22:58:00.692Z,4.40
2019-02-09T23:00:51.726Z,4.40
2019-02-09T23:03:26.525Z,4.30
2019-02-09T23:06:21.600Z,4.20
2019-02-09T23:08:55.757Z,4.10
2019-02-09T23:11:24.186Z,4.00
2019-02-09T23:13:52.643Z,4.00
2019-02-09T23:16:21.091Z,3.90
2019-02-09T23:18:49.544Z,3.90
2019-02-09T23:21:17.954Z,3.90
2019-02-09T23:23:46.372Z,3.90
2019-02-09T23:26:18.500Z,3.90
2019-02-09T23:28:46.935Z,3.90
2019-02-09T23:31:15.379Z,3.90
2019-02-09T23:33:43.812Z,3.80
2019-02-09T23:36:16.394Z,3.90
2019-02-09T23:38:42.391Z,3.90
2019-02-09T23:41:10.823Z,4.00
2019-02-09T23:43:39.258Z,4.00
2019-02-09T23:46:07.695Z,4.00
2019-02-09T23:48:36.105Z,4.00
2019-02-09T23:51:04.536Z,4.10
2019-02-09T23:53:32.958Z,4.10
2019-02-09T23:56:01.379Z,4.10
2019-02-09T23:58:29.835Z,4.10
